createdAt,value
2022-11-23T00:00:38.004Z,97373.41
2022-11-23T00:03:05.120Z,97383.06
2022-11-23T00:05:32.199Z,97365.47
2022-11-23T00:07:59.116Z,97367.81
2022-11-23T00:10:26.061Z,97369.44
2022-11-23T00:12:53.009Z,97355.16
2022-11-23T00:15:19.903Z,97362.50
2022-11-23T00:17:48.509Z,97354.50
2022-11-23T00:20:15.608Z,97358.16
2022-11-23T00:22:42.569Z,97365.81
2022-11-23T00:25:09.728Z,97361.47
2022-11-23T00:27:36.665Z,97359.50
2022-11-23T00:30:04.240Z,97367.13
2022-11-23T00:32:31.160Z,97374.75
2022-11-23T00:34:58.126Z,97371.09
2022-11-23T00:37:24.993Z,97361.97
2022-11-23T00:39:51.904Z,97374.94
2022-11-23T00:42:18.835Z,97366.47
2022-11-23T00:44:45.704Z,97365.78
2022-11-23T00:47:12.668Z,97369.75
2022-11-23T00:49:39.544Z,97367.75
2022-11-23T00:52:06.432Z,97372.41
2022-11-23T00:54:33.305Z,97369.06
2022-11-23T00:57:00.249Z,97368.56
2022-11-23T00:59:27.184Z,97372.41
2022-11-23T01:01:54.135Z,97358.28
2022-11-23T01:04:21.034Z,97313.91
2022-11-23T01:06:47.957Z,97356.78
2022-11-23T01:09:25.248Z,97355.94
2022-11-23T01:11:55.161Z,97355.09
2022-11-23T01:14:22.938Z,97343.00
2022-11-23T01:16:51.029Z,97350.13
2022-11-23T01:19:20.182Z,97344.81
2022-11-23T01:21:47.456Z,97346.28
2022-11-23T01:24:22.389Z,97351.44
2022-11-23T01:26:53.260Z,97346.28
2022-11-23T01:29:20.511Z,97345.31
2022-11-23T01:31:47.673Z,97332.03
2022-11-23T01:34:15.573Z,97339.50
2022-11-23T01:36:43.424Z,97335.38
2022-11-23T01:39:11.796Z,97342.19
2022-11-23T01:41:41.251Z,97342.72
2022-11-23T01:44:30.450Z,97327.09
2022-11-23T01:47:00.340Z,97343.56
2022-11-23T01:49:31.948Z,97352.03
2022-11-23T01:52:02.420Z,97348.19
2022-11-23T01:54:36.056Z,97353.69
2022-11-23T01:57:21.389Z,97355.50
2022-11-23T01:59:49.904Z,97347.00
2022-11-23T02:02:18.121Z,97357.50
2022-11-23T02:04:48.565Z,97367.97
2022-11-23T02:07:35.517Z,97374.09
2022-11-23T02:10:25.204Z,97370.47
2022-11-23T02:13:21.655Z,97372.28
2022-11-23T02:16:09.481Z,97366.47
2022-11-23T02:19:02.925Z,97377.41
2022-11-23T02:21:52.406Z,97368.09
2022-11-23T02:24:48.025Z,97365.94
2022-11-23T02:27:24.344Z,97358.16
2022-11-23T02:29:52.677Z,97366.78
2022-11-23T02:32:23.780Z,97373.91
2022-11-23T02:34:51.155Z,97368.09
2022-11-23T02:37:18.959Z,97364.75
2022-11-23T02:39:50.225Z,97366.06
2022-11-23T02:42:18.296Z,97353.13
2022-11-23T02:44:53.896Z,97361.78
2022-11-23T02:47:20.882Z,97377.38
2022-11-23T02:49:49.581Z,97370.72
2022-11-23T02:52:17.914Z,97367.25
2022-11-23T02:54:45.053Z,97380.84
2022-11-23T02:57:12.275Z,97332.50
2022-11-23T02:59:39.210Z,97372.88
2022-11-23T03:02:06.496Z,97374.72
2022-11-23T03:04:36.376Z,97374.53
2022-11-23T03:07:03.249Z,97371.88
2022-11-23T03:09:30.598Z,97369.75
2022-11-23T03:11:57.978Z,97352.13
2022-11-23T03:14:26.034Z,97356.44
2022-11-23T03:16:53.130Z,97358.78
2022-11-23T03:19:19.984Z,97349.16
2022-11-23T03:21:47.232Z,97359.63
2022-11-23T03:24:14.132Z,97363.06
2022-11-23T03:26:41.069Z,97360.13
2022-11-23T03:29:08.029Z,97357.13
2022-11-23T03:31:34.953Z,97345.84
2022-11-23T03:34:01.864Z,97343.16
2022-11-23T03:36:28.757Z,97343.16
2022-11-23T03:38:55.837Z,97348.16
2022-11-23T03:41:22.739Z,97339.72
2022-11-23T03:43:49.616Z,97330.72
2022-11-23T03:46:16.510Z,97335.53
2022-11-23T03:48:43.410Z,97337.34
2022-11-23T03:51:10.372Z,97328.06
2022-11-23T03:53:37.258Z,97319.25
2022-11-23T03:56:04.330Z,97335.22
2022-11-23T03:58:31.217Z,97317.44
2022-11-23T04:00:58.150Z,97337.06
2022-11-23T04:03:25.070Z,97323.94
2022-11-23T04:05:52.019Z,97305.34
2022-11-23T04:08:18.914Z,97331.91
2022-11-23T04:10:45.821Z,97338.88
2022-11-23T04:13:12.976Z,97336.25
2022-11-23T04:15:39.894Z,97349.38
2022-11-23T04:18:06.778Z,97347.19
2022-11-23T04:20:33.690Z,97344.69
2022-11-23T04:23:00.554Z,97338.56
2022-11-23T04:25:27.528Z,97336.59
2022-11-23T04:27:54.419Z,97348.38
2022-11-23T04:30:21.959Z,97353.69
2022-11-23T04:32:48.903Z,97352.03
2022-11-23T04:35:15.868Z,97351.34
2022-11-23T04:37:42.843Z,97353.19
2022-11-23T04:40:10.356Z,97344.69
2022-11-23T04:42:37.251Z,97348.16
2022-11-23T04:45:04.525Z,97338.03
2022-11-23T04:47:31.440Z,97347.81
2022-11-23T04:49:58.397Z,97336.53
2022-11-23T04:52:25.311Z,97339.84
2022-11-23T04:54:52.175Z,97311.75
2022-11-23T04:57:19.329Z,97355.44
2022-11-23T04:59:47.277Z,97344.97
2022-11-23T05:02:14.236Z,97347.63
2022-11-23T05:04:41.206Z,97346.66
2022-11-23T05:07:08.107Z,97359.75
2022-11-23T05:09:35.293Z,97351.81
2022-11-23T05:12:02.266Z,97347.13
2022-11-23T05:14:29.186Z,97351.78
2022-11-23T05:16:56.039Z,97353.94
2022-11-23T05:19:22.928Z,97345.47
2022-11-23T05:21:49.875Z,97341.31
2022-11-23T05:24:16.885Z,97340.97
2022-11-23T05:26:43.790Z,97336.84
2022-11-23T05:29:10.719Z,97341.31
2022-11-23T05:31:37.577Z,97339.66
2022-11-23T05:34:04.808Z,97321.91
2022-11-23T05:36:31.711Z,97332.53
2022-11-23T05:38:58.597Z,97339.66
2022-11-23T05:41:25.438Z,97335.03
2022-11-23T05:43:52.307Z,97335.88
2022-11-23T05:46:19.276Z,97339.50
2022-11-23T05:48:46.277Z,97325.75
2022-11-23T05:51:13.141Z,97332.88
2022-11-23T05:53:40.046Z,97342.50
2022-11-23T05:56:07.048Z,97339.38
2022-11-23T05:58:33.921Z,97339.53
2022-11-23T06:01:01.397Z,97348.16
2022-11-23T06:03:28.365Z,97322.94
2022-11-23T06:05:55.304Z,97357.97
2022-11-23T06:08:22.198Z,97345.19
2022-11-23T06:10:49.114Z,97362.63
2022-11-23T06:13:16.087Z,97367.13
2022-11-23T06:15:42.997Z,97369.28
2022-11-23T06:18:10.112Z,97383.38
2022-11-23T06:20:37.286Z,97377.75
2022-11-23T06:23:04.243Z,97366.78
2022-11-23T06:25:31.286Z,97389.06
2022-11-23T06:28:00.531Z,97387.72
2022-11-23T06:30:29.135Z,97392.84
2022-11-23T06:32:56.674Z,97387.03
2022-11-23T06:35:24.064Z,97388.88
2022-11-23T06:37:54.886Z,97387.38
2022-11-23T06:40:22.307Z,97386.53
2022-11-23T06:43:27.093Z,97397.69
2022-11-23T06:45:55.195Z,97381.44
2022-11-23T06:48:22.388Z,97390.53
2022-11-23T06:50:49.691Z,97390.72
2022-11-23T06:53:16.703Z,97398.22
2022-11-23T06:55:43.811Z,97394.91
2022-11-23T06:58:10.722Z,97386.75
2022-11-23T07:00:37.640Z,97378.44
2022-11-23T07:03:04.571Z,97395.41
2022-11-23T07:05:32.443Z,97395.75
2022-11-23T07:07:59.371Z,97402.88
2022-11-23T07:10:26.350Z,97391.06
2022-11-23T07:12:53.200Z,97397.72
2022-11-23T07:15:20.248Z,97398.06
2022-11-23T07:17:47.170Z,97389.59
2022-11-23T07:20:14.787Z,97397.41
2022-11-23T07:22:41.874Z,97402.03
2022-11-23T07:25:09.382Z,97409.34
2022-11-23T07:27:36.249Z,97408.38
2022-11-23T07:30:03.367Z,97412.84
2022-11-23T07:32:30.786Z,97412.34
2022-11-23T07:34:57.674Z,97417.00
2022-11-23T07:37:24.618Z,97400.38
2022-11-23T07:39:57.758Z,97411.03
2022-11-23T07:42:33.548Z,97413.00
2022-11-23T07:45:04.143Z,97408.69
2022-11-23T07:47:31.367Z,97404.88
2022-11-23T07:49:58.332Z,97417.50
2022-11-23T07:52:25.399Z,97414.69
2022-11-23T07:54:52.328Z,97409.34
2022-11-23T07:57:19.234Z,97403.72
2022-11-23T07:59:46.133Z,97408.84
2022-11-23T08:02:15.675Z,97416.66
2022-11-23T08:04:42.637Z,97409.00
2022-11-23T08:07:09.666Z,97408.97
2022-11-23T08:09:36.913Z,97408.34
2022-11-23T08:12:03.964Z,97425.28
2022-11-23T08:14:31.100Z,97412.47
2022-11-23T08:16:58.154Z,97421.59
2022-11-23T08:19:25.051Z,97406.66
2022-11-23T08:21:51.907Z,97411.28
2022-11-23T08:24:18.853Z,97402.66
2022-11-23T08:26:46.267Z,97409.28
2022-11-23T08:29:13.119Z,97412.78
2022-11-23T08:31:40.012Z,97406.63
2022-11-23T08:34:06.947Z,97401.00
2022-11-23T08:36:33.878Z,97402.13
2022-11-23T08:39:00.812Z,97410.25
2022-11-23T08:41:28.034Z,97393.94
2022-11-23T08:43:54.898Z,97405.81
2022-11-23T08:46:21.917Z,97402.91
2022-11-23T08:48:48.937Z,97399.59
2022-11-23T08:51:15.886Z,97400.88
2022-11-23T08:53:42.802Z,97400.34
2022-11-23T08:56:10.382Z,97403.59
2022-11-23T08:58:37.260Z,97399.06
2022-11-23T09:01:09.452Z,97343.69
2022-11-23T09:03:36.505Z,97399.81
2022-11-23T09:06:03.574Z,97397.50
2022-11-23T09:08:30.882Z,97383.34
2022-11-23T09:11:06.747Z,97390.16
2022-11-23T09:13:37.358Z,97394.34
2022-11-23T09:16:05.944Z,97390.56
2022-11-23T09:18:36.880Z,97388.44
2022-11-23T09:21:05.222Z,97392.88
2022-11-23T09:23:32.325Z,97397.84
2022-11-23T09:26:00.619Z,97394.50
2022-11-23T09:28:28.701Z,97399.50
2022-11-23T09:30:57.003Z,97380.59
2022-11-23T09:33:25.300Z,97396.53
2022-11-23T09:36:03.936Z,97393.56
2022-11-23T09:38:55.143Z,97389.53
2022-11-23T09:41:46.152Z,97400.81
2022-11-23T09:44:21.832Z,97394.31
2022-11-23T09:47:19.160Z,97379.78
2022-11-23T09:50:12.248Z,97384.13
2022-11-23T09:52:42.735Z,97378.13
2022-11-23T09:55:18.991Z,97369.09
2022-11-23T09:57:47.620Z,97374.41
2022-11-23T10:00:22.659Z,97353.72
2022-11-23T10:02:49.936Z,97365.00
2022-11-23T10:05:21.249Z,97362.59
2022-11-23T10:08:06.662Z,97361.72
2022-11-23T10:11:00.403Z,97348.78
2022-11-23T10:13:33.491Z,97356.44
2022-11-23T10:16:13.365Z,97346.78
2022-11-23T10:18:56.220Z,97348.03
2022-11-23T10:21:30.471Z,97346.56
2022-11-23T10:24:05.218Z,97350.38
2022-11-23T10:26:40.409Z,97339.56
2022-11-23T10:29:17.381Z,97343.75
2022-11-23T10:31:52.622Z,97338.97
2022-11-23T10:34:44.192Z,97341.00
2022-11-23T10:37:15.730Z,97340.38
2022-11-23T10:39:42.624Z,97333.31
2022-11-23T10:42:21.067Z,97341.84
2022-11-23T10:44:50.623Z,97335.13
2022-11-23T10:47:51.018Z,97338.03
2022-11-23T10:50:24.376Z,97335.53
2022-11-23T10:53:16.082Z,97334.63
2022-11-23T10:55:53.998Z,97325.72
2022-11-23T10:58:31.521Z,97321.22
2022-11-23T11:01:07.510Z,97329.25
2022-11-23T11:03:35.782Z,97319.00
2022-11-23T11:06:09.135Z,97331.13
2022-11-23T11:09:00.443Z,97320.47
2022-11-23T11:11:37.665Z,97327.53
2022-11-23T11:14:23.687Z,97324.41
2022-11-23T11:16:52.679Z,97323.03
2022-11-23T11:19:28.658Z,97334.97
2022-11-23T11:21:56.991Z,97326.06
2022-11-23T11:24:36.459Z,97329.00
2022-11-23T11:27:07.669Z,97325.81
2022-11-23T11:29:40.628Z,97325.94
2022-11-23T11:32:15.232Z,97308.06
2022-11-23T11:34:53.935Z,97326.47
2022-11-23T11:37:31.386Z,97322.13
2022-11-23T11:40:10.155Z,97322.06
2022-11-23T11:42:47.283Z,97321.13
2022-11-23T11:45:23.507Z,97322.28
2022-11-23T11:48:03.721Z,97329.28
2022-11-23T11:50:35.252Z,97323.34
2022-11-23T11:53:14.806Z,97311.03
2022-11-23T11:55:58.331Z,97308.66
2022-11-23T11:58:26.802Z,97320.50
2022-11-23T12:01:21.266Z,97320.16
2022-11-23T12:03:57.013Z,97326.88
2022-11-23T12:06:43.346Z,97324.34
2022-11-23T12:09:35.659Z,97325.00
2022-11-23T12:12:05.364Z,97330.81
2022-11-23T12:14:32.471Z,97325.72
2022-11-23T12:17:25.325Z,97325.88
2022-11-23T12:20:05.379Z,97335.44
2022-11-23T12:22:50.584Z,97339.66
2022-11-23T12:25:39.151Z,97333.41
2022-11-23T12:28:22.722Z,97333.34
2022-11-23T12:31:08.150Z,97345.06
2022-11-23T12:36:55.299Z,97335.94
2022-11-23T12:39:47.649Z,97346.78
2022-11-23T12:42:32.852Z,97343.41
2022-11-23T12:45:42.176Z,97353.78
2022-11-23T12:48:11.846Z,97351.63
2022-11-23T12:51:10.117Z,97358.00
2022-11-23T12:53:52.127Z,97361.94
2022-11-23T12:56:21.676Z,97368.50
2022-11-23T12:58:50.459Z,97365.69
2022-11-23T13:01:30.900Z,97360.88
2022-11-23T13:04:31.673Z,97369.75
2022-11-23T13:07:32.799Z,97363.66
2022-11-23T13:10:30.801Z,97379.63
2022-11-23T13:12:57.719Z,97377.53
2022-11-23T13:15:59.517Z,97378.06
2022-11-23T13:18:35.149Z,97379.41
2022-11-23T13:21:36.747Z,97373.25
2022-11-23T13:24:04.403Z,97375.09
2022-11-23T13:26:34.169Z,97365.31
2022-11-23T13:29:50.132Z,97376.94
2022-11-23T13:32:38.779Z,97371.94
2022-11-23T13:35:24.055Z,97365.13
2022-11-23T13:37:57.173Z,97367.66
2022-11-23T13:40:33.385Z,97371.34
2022-11-23T13:43:05.242Z,97372.16
2022-11-23T13:45:39.445Z,97361.88
2022-11-23T13:48:09.184Z,97372.84
2022-11-23T13:50:55.281Z,97370.22
2022-11-23T13:53:23.787Z,97377.03
2022-11-23T13:55:53.174Z,97371.22
2022-11-23T13:58:23.452Z,97371.75
2022-11-23T14:00:51.903Z,97377.56
2022-11-23T14:03:49.806Z,97378.25
2022-11-23T14:06:42.590Z,97387.19
2022-11-23T14:09:27.974Z,97376.41
2022-11-23T14:11:59.606Z,97384.03
2022-11-23T14:14:35.265Z,97375.09
2022-11-23T14:17:28.461Z,97382.41
2022-11-23T14:21:00.608Z,97376.75
2022-11-23T14:23:52.340Z,97384.06
2022-11-23T14:26:29.253Z,97382.38
2022-11-23T14:29:05.132Z,97391.19
2022-11-23T14:31:44.053Z,97387.22
2022-11-23T14:34:33.017Z,97393.72
2022-11-23T14:37:18.717Z,97390.22
2022-11-23T14:40:07.122Z,97394.53
2022-11-23T14:42:41.953Z,97399.38
2022-11-23T14:45:15.062Z,97394.41
2022-11-23T14:47:42.254Z,97394.56
2022-11-23T14:50:27.252Z,97405.53
2022-11-23T14:52:57.609Z,97402.38
2022-11-23T14:55:28.540Z,97415.34
2022-11-23T14:58:00.557Z,97422.97
2022-11-23T15:00:37.137Z,97403.84
2022-11-23T15:03:48.818Z,97418.31
2022-11-23T15:06:14.936Z,97425.78
2022-11-23T15:08:48.112Z,97414.00
2022-11-23T15:11:21.379Z,97427.97
2022-11-23T15:13:50.400Z,97428.13
2022-11-23T15:16:19.899Z,97424.81
2022-11-23T15:18:47.852Z,97419.00
2022-11-23T15:21:26.991Z,97419.50
2022-11-23T15:23:57.960Z,97415.84
2022-11-23T15:29:35.856Z,97411.34
2022-11-23T15:32:30.547Z,97416.50
2022-11-23T15:35:13.162Z,97405.88
2022-11-23T15:37:50.922Z,97409.03
2022-11-23T15:40:19.691Z,97414.31
2022-11-23T15:42:50.271Z,97420.81
2022-11-23T15:45:35.959Z,97421.81
2022-11-23T15:48:05.789Z,97423.97
2022-11-23T15:50:34.369Z,97428.63
2022-11-23T15:53:02.403Z,97430.31
2022-11-23T15:55:30.488Z,97430.81
2022-11-23T15:57:58.297Z,97422.47
2022-11-23T16:00:26.369Z,97422.50
2022-11-23T16:02:53.822Z,97378.47
2022-11-23T16:05:22.837Z,97425.28
2022-11-23T16:08:01.522Z,97424.16
2022-11-23T16:10:29.693Z,97426.81
2022-11-23T16:13:01.380Z,97433.94
2022-11-23T16:15:32.769Z,97421.97
2022-11-23T16:18:01.151Z,97425.13
2022-11-23T16:20:29.818Z,97429.63
2022-11-23T16:22:59.666Z,97430.59
2022-11-23T16:25:33.112Z,97424.97
2022-11-23T16:28:06.862Z,97411.66
2022-11-23T16:30:40.037Z,97442.28
2022-11-23T16:33:13.612Z,97441.25
2022-11-23T16:35:40.521Z,97441.44
2022-11-23T16:38:07.432Z,97444.44
2022-11-23T16:40:34.409Z,97416.66
2022-11-23T16:43:01.383Z,97440.25
2022-11-23T16:45:28.344Z,97435.28
2022-11-23T16:48:03.453Z,97441.28
2022-11-23T16:50:32.597Z,97429.78
2022-11-23T16:53:14.934Z,97446.91
2022-11-23T16:55:43.780Z,97447.91
2022-11-23T16:58:15.989Z,97451.59
2022-11-23T17:00:43.272Z,97449.22
2022-11-23T17:03:15.405Z,97438.28
2022-11-23T17:05:42.705Z,97432.44
2022-11-23T17:08:09.637Z,97440.25
2022-11-23T17:10:38.398Z,97442.59
2022-11-23T17:13:12.800Z,97450.25
2022-11-23T17:15:40.485Z,97432.63
2022-11-23T17:18:14.697Z,97439.91
2022-11-23T17:20:42.143Z,97435.28
2022-11-23T17:23:09.421Z,97453.06
2022-11-23T17:25:37.626Z,97441.44
2022-11-23T17:28:06.189Z,97435.63
2022-11-23T17:30:35.960Z,97409.69
2022-11-23T17:33:02.969Z,97429.13
2022-11-23T17:35:32.686Z,97445.06
2022-11-23T17:38:02.924Z,97444.91
2022-11-23T17:40:30.026Z,97438.44
2022-11-23T17:42:57.062Z,97451.88
2022-11-23T17:45:24.018Z,97450.91
2022-11-23T17:47:51.177Z,97437.59
2022-11-23T17:50:19.664Z,97452.22
2022-11-23T17:52:47.887Z,97440.63
2022-11-23T17:55:16.017Z,97454.88
2022-11-23T17:57:43.433Z,97446.41
2022-11-23T18:00:20.144Z,97465.84
2022-11-23T18:02:47.763Z,97452.22
2022-11-23T18:05:21.127Z,97462.84
2022-11-23T18:07:49.654Z,97451.88
2022-11-23T18:10:16.997Z,97462.88
2022-11-23T18:12:46.573Z,97461.88
2022-11-23T18:15:13.854Z,97462.03
2022-11-23T18:17:40.855Z,97468.69
2022-11-23T18:20:08.897Z,97463.84
2022-11-23T18:22:36.116Z,97462.03
2022-11-23T18:25:03.412Z,97455.72
2022-11-23T18:27:30.347Z,97456.06
2022-11-23T18:29:57.571Z,97451.56
2022-11-23T18:32:24.470Z,97452.56
2022-11-23T18:34:51.620Z,97454.53
2022-11-23T18:37:18.538Z,97449.41
2022-11-23T18:39:45.724Z,97454.53
2022-11-23T18:42:12.717Z,97461.72
2022-11-23T18:44:39.612Z,97453.75
2022-11-23T18:47:06.531Z,97459.56
2022-11-23T18:49:33.698Z,97472.16
2022-11-23T18:52:00.962Z,97470.50
2022-11-23T18:54:27.854Z,97464.03
2022-11-23T18:56:54.714Z,97474.84
2022-11-23T19:02:10.916Z,97449.06
2022-11-23T19:04:38.985Z,97455.06
2022-11-23T19:07:06.044Z,97452.56
2022-11-23T19:09:33.340Z,97451.38
2022-11-23T19:12:01.735Z,97456.69
2022-11-23T19:14:28.636Z,97457.56
2022-11-23T19:16:55.544Z,97468.50
2022-11-23T19:19:22.427Z,97448.41
2022-11-23T19:21:49.398Z,97448.22
2022-11-23T19:24:16.366Z,97454.06
2022-11-23T19:26:43.336Z,97457.22
2022-11-23T19:29:10.316Z,97445.91
2022-11-23T19:31:37.362Z,97447.91
2022-11-23T19:34:06.222Z,97451.56
2022-11-23T19:36:36.649Z,97452.25
2022-11-23T19:39:08.534Z,97449.06
2022-11-23T19:41:35.482Z,97444.88
2022-11-23T19:44:02.368Z,97446.91
2022-11-23T19:46:30.664Z,97443.91
2022-11-23T19:48:58.366Z,97454.06
2022-11-23T19:51:26.713Z,97447.91
2022-11-23T19:53:57.300Z,97445.41
2022-11-23T19:56:26.370Z,97446.72
2022-11-23T19:58:55.861Z,97454.91
2022-11-23T20:01:25.106Z,97451.75
2022-11-23T20:03:53.876Z,97462.88
2022-11-23T20:06:26.294Z,97464.19
2022-11-23T20:09:01.857Z,97468.19
2022-11-23T20:11:30.922Z,97453.22
2022-11-23T20:13:58.254Z,97469.19
2022-11-23T20:16:26.964Z,97471.00
2022-11-23T20:19:01.566Z,97485.28
2022-11-23T20:25:00.253Z,97473.50
2022-11-23T20:27:27.637Z,97460.88
2022-11-23T20:29:54.643Z,97486.31
2022-11-23T20:32:21.506Z,97492.28
2022-11-23T20:34:49.014Z,97487.47
2022-11-23T20:37:15.870Z,97492.63
2022-11-23T20:39:42.768Z,97489.47
2022-11-23T20:42:09.647Z,97486.97
2022-11-23T20:44:37.618Z,97489.97
2022-11-23T20:47:04.804Z,97472.50
2022-11-23T20:49:32.269Z,97485.50
2022-11-23T20:52:00.225Z,97483.31
2022-11-23T20:54:27.277Z,97490.44
2022-11-23T20:56:54.225Z,97496.44
2022-11-23T20:59:24.113Z,97486.31
2022-11-23T21:01:51.448Z,97487.13
2022-11-23T21:04:18.524Z,97491.13
2022-11-23T21:06:45.579Z,97490.44
2022-11-23T21:09:12.557Z,97489.47
2022-11-23T21:11:58.217Z,97499.44
2022-11-23T21:14:28.310Z,97483.66
2022-11-23T21:16:58.699Z,97503.59
2022-11-23T21:19:37.046Z,97496.78
2022-11-23T21:22:06.956Z,97490.97
2022-11-23T21:24:37.398Z,97512.25
2022-11-23T21:27:06.044Z,97515.75
2022-11-23T21:29:33.580Z,97514.06
2022-11-23T21:32:03.808Z,97493.78
2022-11-23T21:34:31.493Z,97518.06
2022-11-23T21:36:58.936Z,97525.88
2022-11-23T21:39:25.859Z,97527.38
2022-11-23T21:41:54.280Z,97524.38
2022-11-23T21:44:23.036Z,97523.53
2022-11-23T21:46:50.340Z,97532.53
2022-11-23T21:49:18.472Z,97527.38
2022-11-23T21:51:46.116Z,97528.69
2022-11-23T21:54:16.672Z,97535.34
2022-11-23T21:56:45.171Z,97527.06
2022-11-23T21:59:12.983Z,97522.72
2022-11-23T22:10:52.635Z,97526.88
2022-11-23T22:13:20.495Z,97490.78
2022-11-23T22:15:49.192Z,97523.88
2022-11-23T22:18:16.457Z,97525.88
2022-11-23T22:20:43.523Z,97517.75
2022-11-23T22:23:12.862Z,97505.41
2022-11-23T22:25:44.154Z,97516.41
2022-11-23T22:28:13.932Z,97511.06
2022-11-23T22:30:40.975Z,97516.41
2022-11-23T22:33:08.051Z,97513.06
2022-11-23T22:35:35.115Z,97516.56
2022-11-23T22:38:02.181Z,97523.72
2022-11-23T22:40:32.987Z,97522.06
2022-11-23T22:43:00.425Z,97516.75
2022-11-23T22:45:27.564Z,97518.56
2022-11-23T22:47:54.744Z,97519.91
2022-11-23T22:50:21.977Z,97514.38
2022-11-23T22:52:49.080Z,97521.03
2022-11-23T22:55:16.147Z,97520.88
2022-11-23T22:57:43.228Z,97530.19
2022-11-23T23:00:11.254Z,97524.03
2022-11-23T23:02:38.605Z,97520.22
2022-11-23T23:05:05.960Z,97522.06
2022-11-23T23:07:33.127Z,97518.22
2022-11-23T23:10:00.361Z,97520.38
2022-11-23T23:12:27.591Z,97522.38
2022-11-23T23:14:54.645Z,97529.19
2022-11-23T23:17:21.718Z,97524.03
2022-11-23T23:19:49.265Z,97529.34
2022-11-23T23:22:16.334Z,97531.50
2022-11-23T23:24:43.671Z,97511.56
2022-11-23T23:27:11.272Z,97515.72
2022-11-23T23:29:38.942Z,97520.72
2022-11-23T23:32:06.332Z,97519.38
2022-11-23T23:34:33.538Z,97519.53
2022-11-23T23:37:00.711Z,97520.38
2022-11-23T23:39:27.812Z,97515.22
2022-11-23T23:41:54.896Z,97516.41
2022-11-23T23:44:21.925Z,97510.41
2022-11-23T23:46:48.993Z,97497.44
2022-11-23T23:49:16.117Z,97517.06
2022-11-23T23:51:45.543Z,97520.72
2022-11-23T23:54:15.868Z,97515.06
2022-11-23T23:56:42.917Z,97516.22
2022-11-23T23:59:09.964Z,97516.22
